• Join FlightAware (Why Join?)
  • Login
  • US Flag 
03:04AM EDT


 

Airport Tracker/Info


-or-


 

Live Flight TrackerFlight Track Log ✈ ASQ5025 ✈ 06-May-2013 ✈ KLGA - KBTV

Flight Track Log - Related Links

Times and Time Zones

All times are in EDT time to prevent confusion due to time zone crossing. See the ASQ5025 flight status page for this flight to view local times or setup timezone preferences in your user account.

Time Position Orientation Groundspeed Altitude Reporting Facility
EDT Latitude Longitude Course Direction KTS MPH feet Rate Location/Type
09:43AM 40.7500 -73.8333 27° Northeast 146 168 2,200  Level New York TRACON
09:44AM 40.7333 -73.8000 123° Southeast 220 253 4,500 2,400 Climbing New York TRACON
09:45AM 40.7833 -73.7500 37° Northeast 254 292 7,100 2,520 Climbing New York TRACON
09:49AM 41.4517 -73.3267 27° Northeast  Level FlightAware Approximate
09:49AM 41.0547 -73.5769 26° Northeast 341 392 15,500  Level Boston Center
09:50AM 41.1469 -73.5206 25° Northeast 352 405 17,600 1,920 Climbing Boston Center
09:51AM 41.2369 -73.4642 25° Northeast 366 421 19,400 1,860 Climbing Boston Center
09:52AM 41.3356 -73.4050 24° Northeast 372 428 21,400 1,800 Climbing Boston Center
09:53AM 41.4211 -73.3922 North 378 435 23,100 1,800 Climbing Boston Center
09:54AM 41.5608 -73.3889 North 388 447 25,000 900 Climbing Boston Center
09:55AM 41.6775 -73.3767 North 394 453 25,000  Level Boston Center
09:57AM 41.9194 -73.3581 North 425 489 25,000  Level Boston Center
09:58AM 42.0383 -73.3486 North 430 495 25,000  Level Boston Center
10:00AM 42.2514 -73.2817 13° North 410 472 25,000  Level Boston Center
10:02AM 42.4869 -73.2594 North 417 480 25,000  Level Boston Center
10:03AM 42.6017 -73.2525 North 417 480 25,000  Level Boston Center
10:04AM 42.7183 -73.2567 358° North 417 480 25,000  Level Boston Center
10:05AM 42.8353 -73.2497 North 422 486 25,000  Level Boston Center
10:06AM 42.9542 -73.2428 North 422 486 25,000 -840 Level Boston Center
10:08AM 43.1123 -73.3242 North  Level FlightAware Approximate
10:11AM 43.5317 -73.2075 North 396 456 20,200  Level Boston Center
10:12AM 43.6378 -73.2003 North 391 450 18,000 -2,160 Descending Boston Center
10:14AM 43.8589 -73.1972 North 386 444 13,800 -2,100 Descending Boston Center
10:15AM 43.7316 -73.2452 North  Level FlightAware Approximate
10:15AM 43.9650 -73.2072 356° North 380 437 11,700  Level Boston Center
10:16AM 43.8203 -73.2363 North  Level FlightAware Approximate
10:16AM 44.0567 -73.2142 357° North 351 404 10,400  Level Boston Center
10:17AM 43.9077 -73.2159 North  Level FlightAware Approximate
10:18AM 44.1981 -73.2567 348° North 288 331 7,600  Level Boston Center
10:20AM 44.3519 -73.3022 348° North 271 312 4,500 -1,260 Descending Boston Center
10:22AM 44.4728 -73.2836 North 210 242 2,700 -840 Descending Boston Center
10:23AM 44.5106 -73.2522 31° Northeast 167 192 2,000 -780 Descending Boston Center
10:24AM 44.5025 -73.2025 103° East 121 139 1,100 -540 Descending Boston Center
10:26AM 44.4697 -73.1294 122° Southeast 103 119 400 -360 Descending Boston Center